sensor_id;sensor_type;location;lat;lon;timestamp;temperature;humidity
12926;DHT22;6529;50.566;9.774;2023-07-31T00:01:03;16.50;1.00
12926;DHT22;6529;50.566;9.774;2023-07-31T00:03:28;16.50;99.90
12926;DHT22;6529;50.566;9.774;2023-07-31T00:05:54;16.50;1.00
12926;DHT22;6529;50.566;9.774;2023-07-31T00:08:20;16.50;1.00
12926;DHT22;6529;50.566;9.774;2023-07-31T00:10:45;16.50;1.00
12926;DHT22;6529;50.566;9.774;2023-07-31T00:13:11;16.40;55.30
12926;DHT22;6529;50.566;9.774;2023-07-31T00:15:36;16.40;99.90
12926;DHT22;6529;50.566;9.774;2023-07-31T00:18:02;16.40;99.90
12926;DHT22;6529;50.566;9.774;2023-07-31T00:20:27;16.40;99.90
12926;DHT22;6529;50.566;9.774;2023-07-31T00:22:53;16.40;99.90
12926;DHT22;6529;50.566;9.774;2023-07-31T00:25:18;16.40;1.00
12926;DHT22;6529;50.566;9.774;2023-07-31T00:27:44;16.40;1.00
12926;DHT22;6529;50.566;9.774;2023-07-31T00:30:11;16.40;1.00
12926;DHT22;6529;50.566;9.774;2023-07-31T00:32:37;16.40;99.90
12926;DHT22;6529;50.566;9.774;2023-07-31T00:35:02;16.30;1.00
12926;DHT22;6529;50.566;9.774;2023-07-31T00:37:28;16.40;99.90
12926;DHT22;6529;50.566;9.774;2023-07-31T00:39:54;16.40;1.00
12926;DHT22;6529;50.566;9.774;2023-07-31T00:42:19;16.40;99.90
12926;DHT22;6529;50.566;9.774;2023-07-31T00:44:45;16.40;99.90
12926;DHT22;6529;50.566;9.774;2023-07-31T00:47:10;16.40;99.90
12926;DHT22;6529;50.566;9.774;2023-07-31T00:49:36;16.50;99.90
12926;DHT22;6529;50.566;9.774;2023-07-31T00:52:01;16.60;99.90
12926;DHT22;6529;50.566;9.774;2023-07-31T00:54:28;16.60;99.90
12926;DHT22;6529;50.566;9.774;2023-07-31T00:56:54;16.60;1.00
12926;DHT22;6529;50.566;9.774;2023-07-31T00:59:20;16.60;1.00
12926;DHT22;6529;50.566;9.774;2023-07-31T01:01:46;16.50;1.00
12926;DHT22;6529;50.566;9.774;2023-07-31T01:04:12;16.50;1.00
12926;DHT22;6529;50.566;9.774;2023-07-31T01:06:43;16.50;1.00
12926;DHT22;6529;50.566;9.774;2023-07-31T01:09:43;16.40;36.90
12926;DHT22;6529;50.566;9.774;2023-07-31T01:12:14;16.30;72.30
12926;DHT22;6529;50.566;9.774;2023-07-31T01:14:39;16.30;99.90
12926;DHT22;6529;50.566;9.774;2023-07-31T01:17:05;16.20;99.90
12926;DHT22;6529;50.566;9.774;2023-07-31T01:19:31;16.20;99.90
12926;DHT22;6529;50.566;9.774;2023-07-31T01:24:36;16.10;99.90
12926;DHT22;6529;50.566;9.774;2023-07-31T01:27:10;16.10;99.90
12926;DHT22;6529;50.566;9.774;2023-07-31T01:32:23;16.10;99.90
12926;DHT22;6529;50.566;9.774;2023-07-31T01:34:49;16.00;99.90
12926;DHT22;6529;50.566;9.774;2023-07-31T01:37:16;16.00;99.90
12926;DHT22;6529;50.566;9.774;2023-07-31T01:39:41;16.00;99.90
12926;DHT22;6529;50.566;9.774;2023-07-31T01:42:07;16.00;99.90
12926;DHT22;6529;50.566;9.774;2023-07-31T01:44:33;16.00;99.90
12926;DHT22;6529;50.566;9.774;2023-07-31T01:46:58;15.90;99.90
12926;DHT22;6529;50.566;9.774;2023-07-31T01:49:25;15.90;99.90
12926;DHT22;6529;50.566;9.774;2023-07-31T01:51:51;15.90;99.90
12926;DHT22;6529;50.566;9.774;2023-07-31T01:54:17;15.90;99.90
12926;DHT22;6529;50.566;9.774;2023-07-31T01:56:42;15.90;99.90
12926;DHT22;6529;50.566;9.774;2023-07-31T01:59:08;15.80;99.90
12926;DHT22;6529;50.566;9.774;2023-07-31T02:01:33;15.80;99.90
12926;DHT22;6529;50.566;9.774;2023-07-31T02:03:59;15.80;99.90
12926;DHT22;6529;50.566;9.774;2023-07-31T02:06:24;15.80;99.90
12926;DHT22;6529;50.566;9.774;2023-07-31T02:08:50;15.70;99.90
12926;DHT22;6529;50.566;9.774;2023-07-31T02:11:16;15.80;99.90
12926;DHT22;6529;50.566;9.774;2023-07-31T02:13:41;15.70;99.90
12926;DHT22;6529;50.566;9.774;2023-07-31T02:16:07;15.70;99.90
12926;DHT22;6529;50.566;9.774;2023-07-31T02:18:33;15.80;99.90
12926;DHT22;6529;50.566;9.774;2023-07-31T02:20:59;15.80;99.90
12926;DHT22;6529;50.566;9.774;2023-07-31T02:23:25;15.70;99.90
12926;DHT22;6529;50.566;9.774;2023-07-31T02:25:50;15.70;99.90
12926;DHT22;6529;50.566;9.774;2023-07-31T02:28:16;15.70;99.90
12926;DHT22;6529;50.566;9.774;2023-07-31T02:30:44;15.70;99.90
12926;DHT22;6529;50.566;9.774;2023-07-31T02:33:11;15.70;99.90
12926;DHT22;6529;50.566;9.774;2023-07-31T02:35:37;15.70;99.90
12926;DHT22;6529;50.566;9.774;2023-07-31T02:38:02;15.70;99.90
12926;DHT22;6529;50.566;9.774;2023-07-31T02:40:28;15.70;99.90
12926;DHT22;6529;50.566;9.774;2023-07-31T02:42:53;15.70;99.90
12926;DHT22;6529;50.566;9.774;2023-07-31T02:45:19;15.70;99.90
12926;DHT22;6529;50.566;9.774;2023-07-31T02:47:44;15.70;99.90
12926;DHT22;6529;50.566;9.774;2023-07-31T02:50:10;15.70;99.90
12926;DHT22;6529;50.566;9.774;2023-07-31T02:52:36;15.70;99.90
12926;DHT22;6529;50.566;9.774;2023-07-31T02:55:01;15.70;99.90
12926;DHT22;6529;50.566;9.774;2023-07-31T02:57:27;15.70;99.90
12926;DHT22;6529;50.566;9.774;2023-07-31T02:59:52;15.70;99.90
12926;DHT22;6529;50.566;9.774;2023-07-31T03:02:18;15.70;99.90
12926;DHT22;6529;50.566;9.774;2023-07-31T03:04:43;15.80;99.90
12926;DHT22;6529;50.566;9.774;2023-07-31T03:07:09;15.80;99.90
12926;DHT22;6529;50.566;9.774;2023-07-31T03:09:34;15.80;99.90
12926;DHT22;6529;50.566;9.774;2023-07-31T03:12:00;15.70;99.90
12926;DHT22;6529;50.566;9.774;2023-07-31T03:14:26;15.80;99.90
12926;DHT22;6529;50.566;9.774;2023-07-31T03:16:54;15.80;99.90
12926;DHT22;6529;50.566;9.774;2023-07-31T03:19:20;15.80;99.90
12926;DHT22;6529;50.566;9.774;2023-07-31T03:21:45;15.90;99.90
12926;DHT22;6529;50.566;9.774;2023-07-31T03:24:11;15.90;99.90
12926;DHT22;6529;50.566;9.774;2023-07-31T03:26:37;15.90;99.90
12926;DHT22;6529;50.566;9.774;2023-07-31T03:29:03;15.90;99.90
12926;DHT22;6529;50.566;9.774;2023-07-31T03:31:29;15.90;99.90
12926;DHT22;6529;50.566;9.774;2023-07-31T03:33:54;15.90;99.90
12926;DHT22;6529;50.566;9.774;2023-07-31T03:36:20;15.90;99.90
12926;DHT22;6529;50.566;9.774;2023-07-31T03:38:46;15.90;99.90
12926;DHT22;6529;50.566;9.774;2023-07-31T03:41:12;15.90;99.90
12926;DHT22;6529;50.566;9.774;2023-07-31T03:43:37;16.00;99.90
12926;DHT22;6529;50.566;9.774;2023-07-31T03:46:03;16.00;99.90
12926;DHT22;6529;50.566;9.774;2023-07-31T03:48:29;16.00;99.90
12926;DHT22;6529;50.566;9.774;2023-07-31T03:50:55;16.00;99.90
12926;DHT22;6529;50.566;9.774;2023-07-31T03:53:20;16.00;99.90
12926;DHT22;6529;50.566;9.774;2023-07-31T03:55:46;16.00;99.90
12926;DHT22;6529;50.566;9.774;2023-07-31T03:58:12;16.00;99.90
12926;DHT22;6529;50.566;9.774;2023-07-31T04:00:37;15.90;99.90
12926;DHT22;6529;50.566;9.774;2023-07-31T04:03:03;16.00;99.90
12926;DHT22;6529;50.566;9.774;2023-07-31T04:05:31;16.00;99.90
12926;DHT22;6529;50.566;9.774;2023-07-31T04:07:57;16.00;99.90
12926;DHT22;6529;50.566;9.774;2023-07-31T04:10:22;16.00;86.80
12926;DHT22;6529;50.566;9.774;2023-07-31T04:12:48;16.00;99.90
12926;DHT22;6529;50.566;9.774;2023-07-31T04:15:14;16.00;65.40
12926;DHT22;6529;50.566;9.774;2023-07-31T04:17:39;16.00;86.10
12926;DHT22;6529;50.566;9.774;2023-07-31T04:20:05;16.00;92.90
12926;DHT22;6529;50.566;9.774;2023-07-31T04:22:31;16.10;99.90
12926;DHT22;6529;50.566;9.774;2023-07-31T04:24:56;16.10;79.10
12926;DHT22;6529;50.566;9.774;2023-07-31T04:27:22;16.10;98.80
12926;DHT22;6529;50.566;9.774;2023-07-31T04:29:48;16.10;99.90
12926;DHT22;6529;50.566;9.774;2023-07-31T04:32:13;16.10;99.90
12926;DHT22;6529;50.566;9.774;2023-07-31T04:34:42;16.10;99.90
12926;DHT22;6529;50.566;9.774;2023-07-31T04:37:07;16.10;99.90
12926;DHT22;6529;50.566;9.774;2023-07-31T04:39:33;16.10;99.90
12926;DHT22;6529;50.566;9.774;2023-07-31T04:41:58;16.10;99.90
12926;DHT22;6529;50.566;9.774;2023-07-31T04:44:24;16.10;99.90
12926;DHT22;6529;50.566;9.774;2023-07-31T04:46:49;16.10;99.90
12926;DHT22;6529;50.566;9.774;2023-07-31T04:49:15;16.10;99.90
12926;DHT22;6529;50.566;9.774;2023-07-31T04:51:40;16.10;99.90
12926;DHT22;6529;50.566;9.774;2023-07-31T04:54:06;16.20;99.90
12926;DHT22;6529;50.566;9.774;2023-07-31T04:56:31;16.20;99.90
12926;DHT22;6529;50.566;9.774;2023-07-31T04:58:57;16.20;92.50
12926;DHT22;6529;50.566;9.774;2023-07-31T05:01:23;16.20;99.90
12926;DHT22;6529;50.566;9.774;2023-07-31T05:03:48;16.20;37.20
12926;DHT22;6529;50.566;9.774;2023-07-31T05:06:14;16.20;98.60
12926;DHT22;6529;50.566;9.774;2023-07-31T05:08:40;16.30;1.00
12926;DHT22;6529;50.566;9.774;2023-07-31T05:11:06;16.40;1.00
12926;DHT22;6529;50.566;9.774;2023-07-31T05:13:31;16.40;1.00
12926;DHT22;6529;50.566;9.774;2023-07-31T05:15:57;16.40;1.00
12926;DHT22;6529;50.566;9.774;2023-07-31T05:18:22;16.40;1.00
12926;DHT22;6529;50.566;9.774;2023-07-31T05:20:48;16.40;1.00
12926;DHT22;6529;50.566;9.774;2023-07-31T05:23:14;16.50;1.00
12926;DHT22;6529;50.566;9.774;2023-07-31T05:25:39;16.50;1.00
12926;DHT22;6529;50.566;9.774;2023-07-31T05:28:05;16.50;1.00
12926;DHT22;6529;50.566;9.774;2023-07-31T05:30:31;16.50;1.00
12926;DHT22;6529;50.566;9.774;2023-07-31T05:32:56;16.50;12.20
12926;DHT22;6529;50.566;9.774;2023-07-31T05:35:22;16.50;1.00
12926;DHT22;6529;50.566;9.774;2023-07-31T05:37:48;16.50;1.00
12926;DHT22;6529;50.566;9.774;2023-07-31T05:40:14;16.50;1.00
12926;DHT22;6529;50.566;9.774;2023-07-31T05:42:40;16.50;34.30
12926;DHT22;6529;50.566;9.774;2023-07-31T05:45:09;16.50;1.00
12926;DHT22;6529;50.566;9.774;2023-07-31T05:47:35;16.60;1.00
12926;DHT22;6529;50.566;9.774;2023-07-31T05:50:00;16.50;1.00
12926;DHT22;6529;50.566;9.774;2023-07-31T05:52:26;16.50;1.00
12926;DHT22;6529;50.566;9.774;2023-07-31T05:54:52;16.60;5.00
12926;DHT22;6529;50.566;9.774;2023-07-31T05:57:18;16.50;1.00
12926;DHT22;6529;50.566;9.774;2023-07-31T05:59:43;16.50;72.20
12926;DHT22;6529;50.566;9.774;2023-07-31T06:02:09;16.50;99.90
12926;DHT22;6529;50.566;9.774;2023-07-31T06:04:34;16.50;99.90
12926;DHT22;6529;50.566;9.774;2023-07-31T06:07:00;16.50;99.90
12926;DHT22;6529;50.566;9.774;2023-07-31T06:09:26;16.50;99.90
12926;DHT22;6529;50.566;9.774;2023-07-31T06:11:51;16.50;99.90
12926;DHT22;6529;50.566;9.774;2023-07-31T06:14:17;16.50;95.40
12926;DHT22;6529;50.566;9.774;2023-07-31T06:16:43;16.50;99.90
12926;DHT22;6529;50.566;9.774;2023-07-31T06:19:09;16.50;94.30
12926;DHT22;6529;50.566;9.774;2023-07-31T06:21:35;16.50;63.40
12926;DHT22;6529;50.566;9.774;2023-07-31T06:24:03;16.50;51.50
12926;DHT22;6529;50.566;9.774;2023-07-31T06:26:28;16.50;1.00
12926;DHT22;6529;50.566;9.774;2023-07-31T06:28:54;16.50;35.20
12926;DHT22;6529;50.566;9.774;2023-07-31T06:31:20;16.50;14.90
12926;DHT22;6529;50.566;9.774;2023-07-31T06:33:48;16.50;96.20
12926;DHT22;6529;50.566;9.774;2023-07-31T06:36:14;16.60;17.20
12926;DHT22;6529;50.566;9.774;2023-07-31T06:38:40;16.70;1.00
12926;DHT22;6529;50.566;9.774;2023-07-31T06:41:05;16.70;1.00
12926;DHT22;6529;50.566;9.774;2023-07-31T06:43:31;16.70;1.00
12926;DHT22;6529;50.566;9.774;2023-07-31T06:45:56;16.70;1.00
12926;DHT22;6529;50.566;9.774;2023-07-31T06:48:22;16.80;1.00
12926;DHT22;6529;50.566;9.774;2023-07-31T06:50:47;16.80;1.00
12926;DHT22;6529;50.566;9.774;2023-07-31T06:53:13;16.80;1.00
12926;DHT22;6529;50.566;9.774;2023-07-31T06:55:38;16.80;1.00
12926;DHT22;6529;50.566;9.774;2023-07-31T06:58:04;16.80;1.00
12926;DHT22;6529;50.566;9.774;2023-07-31T07:00:30;16.80;1.00
12926;DHT22;6529;50.566;9.774;2023-07-31T07:02:55;16.90;1.00
12926;DHT22;6529;50.566;9.774;2023-07-31T07:05:21;16.80;1.00
12926;DHT22;6529;50.566;9.774;2023-07-31T07:07:49;16.80;1.00
12926;DHT22;6529;50.566;9.774;2023-07-31T07:10:15;16.80;1.00
12926;DHT22;6529;50.566;9.774;2023-07-31T07:12:41;16.90;1.00
12926;DHT22;6529;50.566;9.774;2023-07-31T07:15:07;16.90;1.00
12926;DHT22;6529;50.566;9.774;2023-07-31T07:17:33;17.00;1.00
12926;DHT22;6529;50.566;9.774;2023-07-31T07:20:00;17.00;1.00
12926;DHT22;6529;50.566;9.774;2023-07-31T07:22:26;17.00;1.00
12926;DHT22;6529;50.566;9.774;2023-07-31T07:24:52;17.00;1.00
12926;DHT22;6529;50.566;9.774;2023-07-31T07:27:18;17.10;99.90
12926;DHT22;6529;50.566;9.774;2023-07-31T07:29:44;17.10;99.90
12926;DHT22;6529;50.566;9.774;2023-07-31T07:32:09;17.10;99.90
12926;DHT22;6529;50.566;9.774;2023-07-31T07:34:35;17.30;99.90
12926;DHT22;6529;50.566;9.774;2023-07-31T07:37:00;17.40;99.90
12926;DHT22;6529;50.566;9.774;2023-07-31T07:39:26;17.40;99.90
12926;DHT22;6529;50.566;9.774;2023-07-31T07:41:51;17.50;1.00
12926;DHT22;6529;50.566;9.774;2023-07-31T07:44:18;17.50;1.00
12926;DHT22;6529;50.566;9.774;2023-07-31T07:46:44;17.60;1.00
12926;DHT22;6529;50.566;9.774;2023-07-31T07:49:09;17.70;1.00
12926;DHT22;6529;50.566;9.774;2023-07-31T07:51:35;17.70;99.90
12926;DHT22;6529;50.566;9.774;2023-07-31T07:54:01;17.60;1.00
12926;DHT22;6529;50.566;9.774;2023-07-31T07:56:27;17.70;1.00
12926;DHT22;6529;50.566;9.774;2023-07-31T07:58:53;17.80;1.00
12926;DHT22;6529;50.566;9.774;2023-07-31T08:01:19;17.90;99.90
12926;DHT22;6529;50.566;9.774;2023-07-31T08:03:45;17.90;99.90
12926;DHT22;6529;50.566;9.774;2023-07-31T08:06:11;17.90;99.90
12926;DHT22;6529;50.566;9.774;2023-07-31T08:08:37;18.00;99.90
12926;DHT22;6529;50.566;9.774;2023-07-31T08:11:03;18.00;32.90
12926;DHT22;6529;50.566;9.774;2023-07-31T08:13:28;18.10;1.00
12926;DHT22;6529;50.566;9.774;2023-07-31T08:15:54;18.10;1.00
12926;DHT22;6529;50.566;9.774;2023-07-31T08:18:20;18.20;35.00
12926;DHT22;6529;50.566;9.774;2023-07-31T08:20:46;18.10;1.00
12926;DHT22;6529;50.566;9.774;2023-07-31T08:23:11;18.20;1.00
12926;DHT22;6529;50.566;9.774;2023-07-31T08:25:37;18.20;93.60
12926;DHT22;6529;50.566;9.774;2023-07-31T08:28:04;18.20;99.90
12926;DHT22;6529;50.566;9.774;2023-07-31T08:30:30;18.20;99.90
12926;DHT22;6529;50.566;9.774;2023-07-31T08:32:56;18.00;99.90
12926;DHT22;6529;50.566;9.774;2023-07-31T08:35:21;18.00;50.50
12926;DHT22;6529;50.566;9.774;2023-07-31T08:37:47;18.10;99.90
12926;DHT22;6529;50.566;9.774;2023-07-31T08:40:13;18.10;99.90
12926;DHT22;6529;50.566;9.774;2023-07-31T08:42:44;18.10;1.00
12926;DHT22;6529;50.566;9.774;2023-07-31T08:45:13;18.10;1.00
12926;DHT22;6529;50.566;9.774;2023-07-31T08:47:39;18.20;99.90
12926;DHT22;6529;50.566;9.774;2023-07-31T08:50:06;18.20;99.90
12926;DHT22;6529;50.566;9.774;2023-07-31T08:52:31;18.20;1.00
12926;DHT22;6529;50.566;9.774;2023-07-31T08:54:57;18.00;99.90
12926;DHT22;6529;50.566;9.774;2023-07-31T08:57:23;18.00;1.00
12926;DHT22;6529;50.566;9.774;2023-07-31T08:59:50;17.90;99.90
12926;DHT22;6529;50.566;9.774;2023-07-31T09:02:17;17.90;1.00
12926;DHT22;6529;50.566;9.774;2023-07-31T09:04:44;17.90;1.00
12926;DHT22;6529;50.566;9.774;2023-07-31T09:07:10;17.80;1.00
12926;DHT22;6529;50.566;9.774;2023-07-31T09:09:38;17.90;1.00
12926;DHT22;6529;50.566;9.774;2023-07-31T09:12:04;17.90;1.00
12926;DHT22;6529;50.566;9.774;2023-07-31T09:14:30;17.90;1.00
12926;DHT22;6529;50.566;9.774;2023-07-31T09:16:58;18.00;1.00
12926;DHT22;6529;50.566;9.774;2023-07-31T09:19:33;18.10;1.00
12926;DHT22;6529;50.566;9.774;2023-07-31T09:21:59;18.20;99.90
12926;DHT22;6529;50.566;9.774;2023-07-31T09:24:30;18.30;99.90
12926;DHT22;6529;50.566;9.774;2023-07-31T09:26:57;18.50;99.90
12926;DHT22;6529;50.566;9.774;2023-07-31T09:29:24;18.80;28.90
12926;DHT22;6529;50.566;9.774;2023-07-31T09:31:51;19.10;99.90
12926;DHT22;6529;50.566;9.774;2023-07-31T09:34:17;19.20;39.40
12926;DHT22;6529;50.566;9.774;2023-07-31T09:39:10;19.40;1.00
12926;DHT22;6529;50.566;9.774;2023-07-31T09:41:42;19.40;1.00
12926;DHT22;6529;50.566;9.774;2023-07-31T09:44:07;19.40;99.90
12926;DHT22;6529;50.566;9.774;2023-07-31T09:46:37;19.40;1.00
12926;DHT22;6529;50.566;9.774;2023-07-31T09:49:10;19.50;1.00
12926;DHT22;6529;50.566;9.774;2023-07-31T09:51:37;19.50;1.00
12926;DHT22;6529;50.566;9.774;2023-07-31T09:54:15;19.50;1.00
12926;DHT22;6529;50.566;9.774;2023-07-31T09:56:43;19.60;99.90
12926;DHT22;6529;50.566;9.774;2023-07-31T09:59:12;19.60;1.00
12926;DHT22;6529;50.566;9.774;2023-07-31T10:01:40;19.60;1.00
12926;DHT22;6529;50.566;9.774;2023-07-31T10:04:08;19.40;99.90
12926;DHT22;6529;50.566;9.774;2023-07-31T10:06:35;19.40;99.90
12926;DHT22;6529;50.566;9.774;2023-07-31T10:09:05;19.30;1.00
12926;DHT22;6529;50.566;9.774;2023-07-31T10:11:36;19.30;1.00
12926;DHT22;6529;50.566;9.774;2023-07-31T10:14:04;19.30;1.00
12926;DHT22;6529;50.566;9.774;2023-07-31T10:16:31;19.20;99.90
12926;DHT22;6529;50.566;9.774;2023-07-31T10:18:57;19.10;1.00
12926;DHT22;6529;50.566;9.774;2023-07-31T10:21:23;19.10;99.90
12926;DHT22;6529;50.566;9.774;2023-07-31T10:23:49;19.10;99.90
12926;DHT22;6529;50.566;9.774;2023-07-31T10:26:17;19.20;1.00
12926;DHT22;6529;50.566;9.774;2023-07-31T10:28:44;19.20;1.00
12926;DHT22;6529;50.566;9.774;2023-07-31T10:31:10;19.00;1.00
12926;DHT22;6529;50.566;9.774;2023-07-31T10:33:36;18.80;1.00
12926;DHT22;6529;50.566;9.774;2023-07-31T10:36:20;18.70;1.00
12926;DHT22;6529;50.566;9.774;2023-07-31T10:38:49;18.60;1.00
12926;DHT22;6529;50.566;9.774;2023-07-31T10:41:16;18.70;1.00
12926;DHT22;6529;50.566;9.774;2023-07-31T10:43:41;18.60;1.00
12926;DHT22;6529;50.566;9.774;2023-07-31T10:46:08;18.50;1.00
12926;DHT22;6529;50.566;9.774;2023-07-31T10:48:35;18.60;99.90
12926;DHT22;6529;50.566;9.774;2023-07-31T10:51:07;18.70;99.90
12926;DHT22;6529;50.566;9.774;2023-07-31T10:53:33;18.70;1.00
12926;DHT22;6529;50.566;9.774;2023-07-31T10:58:29;18.60;1.00
12926;DHT22;6529;50.566;9.774;2023-07-31T11:00:58;18.60;1.00
12926;DHT22;6529;50.566;9.774;2023-07-31T11:03:47;18.50;1.00
12926;DHT22;6529;50.566;9.774;2023-07-31T11:06:22;18.50;99.90
12926;DHT22;6529;50.566;9.774;2023-07-31T11:08:49;18.60;1.00
12926;DHT22;6529;50.566;9.774;2023-07-31T11:11:18;18.70;24.20
12926;DHT22;6529;50.566;9.774;2023-07-31T11:13:51;18.70;1.00
12926;DHT22;6529;50.566;9.774;2023-07-31T11:16:19;18.60;1.00
12926;DHT22;6529;50.566;9.774;2023-07-31T11:18:47;18.60;1.00
12926;DHT22;6529;50.566;9.774;2023-07-31T11:23:40;18.70;1.00
12926;DHT22;6529;50.566;9.774;2023-07-31T11:26:06;18.60;1.00
12926;DHT22;6529;50.566;9.774;2023-07-31T11:28:34;18.50;1.00
12926;DHT22;6529;50.566;9.774;2023-07-31T11:31:01;18.50;1.00
12926;DHT22;6529;50.566;9.774;2023-07-31T11:33:26;18.50;1.00
12926;DHT22;6529;50.566;9.774;2023-07-31T11:35:52;18.40;1.00
12926;DHT22;6529;50.566;9.774;2023-07-31T11:38:29;18.40;1.00
12926;DHT22;6529;50.566;9.774;2023-07-31T11:41:01;18.40;1.00
12926;DHT22;6529;50.566;9.774;2023-07-31T11:43:33;18.40;1.00
12926;DHT22;6529;50.566;9.774;2023-07-31T11:46:02;18.50;1.00
12926;DHT22;6529;50.566;9.774;2023-07-31T11:48:29;18.60;1.00
12926;DHT22;6529;50.566;9.774;2023-07-31T11:50:59;18.60;1.00
12926;DHT22;6529;50.566;9.774;2023-07-31T11:53:39;18.50;1.00
12926;DHT22;6529;50.566;9.774;2023-07-31T11:56:07;18.40;72.00
12926;DHT22;6529;50.566;9.774;2023-07-31T11:58:34;18.40;1.00
12926;DHT22;6529;50.566;9.774;2023-07-31T12:01:01;18.40;99.90
12926;DHT22;6529;50.566;9.774;2023-07-31T12:03:27;18.40;99.90
12926;DHT22;6529;50.566;9.774;2023-07-31T12:05:56;18.40;95.50
12926;DHT22;6529;50.566;9.774;2023-07-31T12:08:23;18.40;25.00
12926;DHT22;6529;50.566;9.774;2023-07-31T12:10:53;18.50;99.90
12926;DHT22;6529;50.566;9.774;2023-07-31T12:13:24;18.50;93.80
12926;DHT22;6529;50.566;9.774;2023-07-31T12:15:54;18.60;14.50
12926;DHT22;6529;50.566;9.774;2023-07-31T12:18:22;18.50;99.90
12926;DHT22;6529;50.566;9.774;2023-07-31T12:20:58;18.60;34.80
12926;DHT22;6529;50.566;9.774;2023-07-31T12:23:29;18.50;1.00
12926;DHT22;6529;50.566;9.774;2023-07-31T12:28:56;18.50;1.00
12926;DHT22;6529;50.566;9.774;2023-07-31T12:31:23;18.50;1.00
12926;DHT22;6529;50.566;9.774;2023-07-31T12:33:50;18.50;1.00
12926;DHT22;6529;50.566;9.774;2023-07-31T12:36:17;18.50;1.00
12926;DHT22;6529;50.566;9.774;2023-07-31T12:38:44;18.70;1.00
12926;DHT22;6529;50.566;9.774;2023-07-31T12:41:10;18.70;1.00
12926;DHT22;6529;50.566;9.774;2023-07-31T12:43:37;18.80;1.00
12926;DHT22;6529;50.566;9.774;2023-07-31T12:46:04;18.80;1.00
12926;DHT22;6529;50.566;9.774;2023-07-31T12:48:31;18.80;1.00
12926;DHT22;6529;50.566;9.774;2023-07-31T12:50:57;18.80;99.90
12926;DHT22;6529;50.566;9.774;2023-07-31T12:53:23;18.80;1.00
12926;DHT22;6529;50.566;9.774;2023-07-31T12:55:48;19.00;99.90
12926;DHT22;6529;50.566;9.774;2023-07-31T12:58:14;18.90;99.90
12926;DHT22;6529;50.566;9.774;2023-07-31T13:00:40;19.00;99.90
12926;DHT22;6529;50.566;9.774;2023-07-31T13:03:05;19.10;99.90
12926;DHT22;6529;50.566;9.774;2023-07-31T13:05:31;19.10;99.90
12926;DHT22;6529;50.566;9.774;2023-07-31T13:07:56;19.30;1.00
12926;DHT22;6529;50.566;9.774;2023-07-31T13:10:23;19.40;1.00
12926;DHT22;6529;50.566;9.774;2023-07-31T13:12:49;19.50;1.00
12926;DHT22;6529;50.566;9.774;2023-07-31T13:15:15;19.60;99.90
12926;DHT22;6529;50.566;9.774;2023-07-31T13:17:41;19.50;99.90
12926;DHT22;6529;50.566;9.774;2023-07-31T13:20:07;19.50;99.90
12926;DHT22;6529;50.566;9.774;2023-07-31T13:22:33;19.50;1.00
12926;DHT22;6529;50.566;9.774;2023-07-31T13:24:58;19.60;70.10
12926;DHT22;6529;50.566;9.774;2023-07-31T13:27:24;19.60;1.00
12926;DHT22;6529;50.566;9.774;2023-07-31T13:29:50;19.60;1.00
12926;DHT22;6529;50.566;9.774;2023-07-31T13:32:17;19.70;1.00
12926;DHT22;6529;50.566;9.774;2023-07-31T13:34:44;19.80;1.00
12926;DHT22;6529;50.566;9.774;2023-07-31T13:37:10;19.80;2.70
12926;DHT22;6529;50.566;9.774;2023-07-31T13:39:35;19.90;1.00
12926;DHT22;6529;50.566;9.774;2023-07-31T13:42:03;20.00;99.90
12926;DHT22;6529;50.566;9.774;2023-07-31T13:44:29;20.00;1.00
12926;DHT22;6529;50.566;9.774;2023-07-31T13:46:54;19.90;99.90
12926;DHT22;6529;50.566;9.774;2023-07-31T13:49:20;20.00;1.00
12926;DHT22;6529;50.566;9.774;2023-07-31T13:51:45;20.00;99.90
12926;DHT22;6529;50.566;9.774;2023-07-31T13:54:11;20.10;1.00
12926;DHT22;6529;50.566;9.774;2023-07-31T13:56:37;20.20;1.00
12926;DHT22;6529;50.566;9.774;2023-07-31T13:59:03;20.10;99.90
12926;DHT22;6529;50.566;9.774;2023-07-31T14:01:29;20.10;99.90
12926;DHT22;6529;50.566;9.774;2023-07-31T14:03:55;20.10;99.90
12926;DHT22;6529;50.566;9.774;2023-07-31T14:06:20;20.00;1.00
12926;DHT22;6529;50.566;9.774;2023-07-31T14:08:46;20.00;1.00
12926;DHT22;6529;50.566;9.774;2023-07-31T14:11:11;20.00;1.00
12926;DHT22;6529;50.566;9.774;2023-07-31T14:13:37;20.10;1.00
12926;DHT22;6529;50.566;9.774;2023-07-31T14:16:03;20.10;99.90
12926;DHT22;6529;50.566;9.774;2023-07-31T14:18:28;20.10;1.00
12926;DHT22;6529;50.566;9.774;2023-07-31T14:20:54;20.20;1.00
12926;DHT22;6529;50.566;9.774;2023-07-31T14:23:20;20.30;1.00
12926;DHT22;6529;50.566;9.774;2023-07-31T14:25:46;20.60;1.00
12926;DHT22;6529;50.566;9.774;2023-07-31T14:28:12;20.70;99.90
12926;DHT22;6529;50.566;9.774;2023-07-31T14:30:37;20.90;1.00
12926;DHT22;6529;50.566;9.774;2023-07-31T14:33:03;21.00;1.00
12926;DHT22;6529;50.566;9.774;2023-07-31T14:35:29;21.00;1.00
12926;DHT22;6529;50.566;9.774;2023-07-31T14:37:54;21.00;1.00
12926;DHT22;6529;50.566;9.774;2023-07-31T14:40:20;21.10;1.00
12926;DHT22;6529;50.566;9.774;2023-07-31T14:42:45;21.00;1.00
12926;DHT22;6529;50.566;9.774;2023-07-31T14:45:11;21.00;1.00
12926;DHT22;6529;50.566;9.774;2023-07-31T14:47:37;21.10;99.90
12926;DHT22;6529;50.566;9.774;2023-07-31T14:50:03;21.10;1.00
12926;DHT22;6529;50.566;9.774;2023-07-31T14:52:29;21.10;1.00
12926;DHT22;6529;50.566;9.774;2023-07-31T14:54:54;21.00;1.00
12926;DHT22;6529;50.566;9.774;2023-07-31T14:57:20;20.90;1.00
12926;DHT22;6529;50.566;9.774;2023-07-31T14:59:46;20.80;1.00
12926;DHT22;6529;50.566;9.774;2023-07-31T15:02:12;20.70;99.90
12926;DHT22;6529;50.566;9.774;2023-07-31T15:04:38;20.70;1.00
12926;DHT22;6529;50.566;9.774;2023-07-31T15:07:04;20.70;44.40
12926;DHT22;6529;50.566;9.774;2023-07-31T15:09:29;20.70;99.90
12926;DHT22;6529;50.566;9.774;2023-07-31T15:11:56;20.70;1.00
12926;DHT22;6529;50.566;9.774;2023-07-31T15:14:22;20.60;1.00
12926;DHT22;6529;50.566;9.774;2023-07-31T15:16:47;20.60;1.00
12926;DHT22;6529;50.566;9.774;2023-07-31T15:19:14;20.50;99.90
12926;DHT22;6529;50.566;9.774;2023-07-31T15:21:40;20.50;1.00
12926;DHT22;6529;50.566;9.774;2023-07-31T15:24:05;20.50;15.40
12926;DHT22;6529;50.566;9.774;2023-07-31T15:26:31;20.50;1.00
12926;DHT22;6529;50.566;9.774;2023-07-31T15:29:10;20.50;1.00
12926;DHT22;6529;50.566;9.774;2023-07-31T15:31:40;20.40;99.90
12926;DHT22;6529;50.566;9.774;2023-07-31T15:34:06;20.30;99.90
12926;DHT22;6529;50.566;9.774;2023-07-31T15:36:32;20.20;99.90
12926;DHT22;6529;50.566;9.774;2023-07-31T15:38:58;20.20;99.90
12926;DHT22;6529;50.566;9.774;2023-07-31T15:41:23;20.10;1.00
12926;DHT22;6529;50.566;9.774;2023-07-31T15:43:50;20.20;1.00
12926;DHT22;6529;50.566;9.774;2023-07-31T15:46:17;20.20;1.00
12926;DHT22;6529;50.566;9.774;2023-07-31T15:48:42;20.30;99.90
12926;DHT22;6529;50.566;9.774;2023-07-31T15:51:08;20.30;1.00
12926;DHT22;6529;50.566;9.774;2023-07-31T15:53:34;20.30;1.00
12926;DHT22;6529;50.566;9.774;2023-07-31T15:55:59;20.30;1.00
12926;DHT22;6529;50.566;9.774;2023-07-31T15:58:25;20.30;1.00
12926;DHT22;6529;50.566;9.774;2023-07-31T16:00:50;20.30;1.00
12926;DHT22;6529;50.566;9.774;2023-07-31T16:03:16;20.30;1.00